createdAt,value
2018-05-12T00:00:48.407Z,956.74
2018-05-12T00:01:48.415Z,956.72
2018-05-12T00:02:48.423Z,956.76
2018-05-12T00:03:48.934Z,956.73
2018-05-12T00:04:48.456Z,956.74
2018-05-12T00:05:48.537Z,956.74
2018-05-12T00:06:48.482Z,956.76
2018-05-12T00:07:48.482Z,956.76
2018-05-12T00:08:48.487Z,956.73
2018-05-12T00:09:48.498Z,956.77
2018-05-12T00:10:48.510Z,956.76
2018-05-12T00:11:48.517Z,956.73
2018-05-12T00:12:48.532Z,956.73
2018-05-12T00:13:48.542Z,956.73
2018-05-12T00:14:48.550Z,956.73
2018-05-12T00:15:48.558Z,956.79
2018-05-12T00:16:48.569Z,956.76
2018-05-12T00:17:48.578Z,956.76
2018-05-12T00:18:48.593Z,956.72
2018-05-12T00:19:48.611Z,956.76
2018-05-12T00:20:48.610Z,956.76
2018-05-12T00:21:48.619Z,956.79
2018-05-12T00:22:48.627Z,956.77
2018-05-12T00:23:48.641Z,956.79
2018-05-12T00:24:48.657Z,956.76
2018-05-12T00:25:48.661Z,956.79
2018-05-12T00:26:48.670Z,956.77
2018-05-12T00:27:48.693Z,956.72
2018-05-12T00:28:48.692Z,956.76
2018-05-12T00:29:48.711Z,956.75
2018-05-12T00:30:48.726Z,956.73
2018-05-12T00:31:48.722Z,956.74
2018-05-12T00:32:48.732Z,956.73
2018-05-12T00:33:48.749Z,956.74
2018-05-12T00:34:48.754Z,956.71
2018-05-12T00:35:48.761Z,956.74
2018-05-12T00:36:48.781Z,956.74
2018-05-12T00:37:48.782Z,956.73
2018-05-12T00:38:48.792Z,956.70
2018-05-12T00:39:48.809Z,956.68
2018-05-12T00:40:48.812Z,956.65
2018-05-12T00:41:48.823Z,956.66
2018-05-12T00:42:48.901Z,956.63
2018-05-12T00:43:48.844Z,956.65
2018-05-12T00:44:48.855Z,956.62
2018-05-12T00:45:48.860Z,956.64
2018-05-12T00:46:48.881Z,956.64
2018-05-12T00:47:48.881Z,956.60
2018-05-12T00:48:48.897Z,956.58
2018-05-12T00:49:48.905Z,956.63
2018-05-12T00:50:48.912Z,956.61
2018-05-12T00:51:48.922Z,956.61
2018-05-12T00:52:48.933Z,956.62
2018-05-12T00:53:48.943Z,956.65
2018-05-12T00:54:48.959Z,956.64
2018-05-12T00:55:48.964Z,956.62
2018-05-12T00:56:48.975Z,956.59
2018-05-12T00:57:48.981Z,956.56
2018-05-12T00:58:48.992Z,956.59
2018-05-12T00:59:49.007Z,956.59
2018-05-12T01:00:49.017Z,956.60
2018-05-12T01:01:49.046Z,956.63
2018-05-12T01:02:49.043Z,956.58
2018-05-12T01:03:49.045Z,956.59
2018-05-12T01:04:49.066Z,956.56
2018-05-12T01:05:49.234Z,956.56
2018-05-12T01:06:49.073Z,956.56
2018-05-12T01:07:49.084Z,956.60
2018-05-12T01:08:49.098Z,956.60
2018-05-12T01:09:49.157Z,956.57
2018-05-12T01:10:49.112Z,956.61
2018-05-12T01:11:49.127Z,956.58
2018-05-12T01:12:49.132Z,956.58
2018-05-12T01:13:49.144Z,956.60
2018-05-12T01:14:49.150Z,956.59
2018-05-12T01:15:49.174Z,956.57
2018-05-12T01:16:49.172Z,956.57
2018-05-12T01:17:49.192Z,956.54
2018-05-12T01:18:49.196Z,956.54
2018-05-12T01:19:49.200Z,956.59
2018-05-12T01:20:49.210Z,956.53
2018-05-12T01:21:49.221Z,956.57
2018-05-12T01:22:49.237Z,956.56
2018-05-12T01:23:49.236Z,956.55
2018-05-12T01:24:49.263Z,956.53
2018-05-12T01:25:49.269Z,956.47
2018-05-12T01:26:49.267Z,956.45
2018-05-12T01:27:49.278Z,956.44
2018-05-12T01:28:49.290Z,956.43
2018-05-12T01:29:49.310Z,956.43
2018-05-12T01:30:49.313Z,956.48
2018-05-12T01:31:49.319Z,956.45
2018-05-12T01:32:49.327Z,956.45
2018-05-12T01:33:49.335Z,956.45
2018-05-12T01:34:49.356Z,956.46
2018-05-12T01:35:49.359Z,956.46
2018-05-12T01:36:49.374Z,956.44
2018-05-12T01:37:49.373Z,956.46
2018-05-12T01:38:49.390Z,956.44
2018-05-12T01:39:49.400Z,956.41
2018-05-12T01:40:49.412Z,956.40
2018-05-12T01:41:49.414Z,956.39
2018-05-12T01:42:49.425Z,956.39
2018-05-12T01:43:49.441Z,956.39
2018-05-12T01:44:49.453Z,956.41
2018-05-12T01:45:49.456Z,956.39
2018-05-12T01:46:49.463Z,956.39
2018-05-12T01:47:49.473Z,956.41
2018-05-12T01:48:49.486Z,956.39
2018-05-12T01:49:49.493Z,956.41
2018-05-12T01:50:49.509Z,956.40
2018-05-12T01:51:49.510Z,956.37
2018-05-12T01:52:49.527Z,956.36
2018-05-12T01:53:49.535Z,956.36
2018-05-12T01:54:49.543Z,956.38
2018-05-12T01:55:49.555Z,956.40
2018-05-12T01:56:49.560Z,956.37
2018-05-12T01:57:49.591Z,956.36
2018-05-12T01:58:49.585Z,956.36
2018-05-12T01:59:49.592Z,956.37
2018-05-12T02:00:49.596Z,956.35
2018-05-12T02:01:49.606Z,956.38
2018-05-12T02:02:49.620Z,956.37
2018-05-12T02:03:49.634Z,956.39
2018-05-12T02:04:49.644Z,956.36
2018-05-12T02:05:49.645Z,956.41
2018-05-12T02:06:49.660Z,956.38
2018-05-12T02:07:49.670Z,956.43
2018-05-12T02:08:49.677Z,956.39
2018-05-12T02:09:49.691Z,956.41
2018-05-12T02:10:49.702Z,956.37
2018-05-12T02:11:49.712Z,956.38
2018-05-12T02:12:49.719Z,956.39
2018-05-12T02:13:49.723Z,956.41
2018-05-12T02:14:49.746Z,956.39
2018-05-12T02:15:49.741Z,956.44
2018-05-12T02:16:49.754Z,956.42
2018-05-12T02:17:49.763Z,956.45
2018-05-12T02:18:49.775Z,956.38
2018-05-12T02:19:49.780Z,956.48
2018-05-12T02:20:49.806Z,956.45
2018-05-12T02:21:49.832Z,956.48
2018-05-12T02:22:49.819Z,956.47
2018-05-12T02:23:49.819Z,956.46
2018-05-12T02:24:49.830Z,956.47
2018-05-12T02:25:49.851Z,956.48
2018-05-12T02:26:49.850Z,956.50
2018-05-12T02:27:49.857Z,956.50
2018-05-12T02:28:49.872Z,956.48
2018-05-12T02:29:49.880Z,956.52
2018-05-12T02:30:49.885Z,956.46
2018-05-12T02:31:49.895Z,956.49
2018-05-12T02:32:49.904Z,956.47
2018-05-12T02:33:49.914Z,956.49
2018-05-12T02:34:49.934Z,956.47
2018-05-12T02:35:49.938Z,956.49
2018-05-12T02:36:49.949Z,956.50
2018-05-12T02:37:49.951Z,956.51
2018-05-12T02:38:49.965Z,956.55
2018-05-12T02:39:49.976Z,956.54
2018-05-12T02:40:49.994Z,956.54
2018-05-12T02:41:49.989Z,956.52
2018-05-12T02:42:50.005Z,956.52
2018-05-12T02:43:50.010Z,956.53
2018-05-12T02:44:50.017Z,956.55
2018-05-12T02:45:50.035Z,956.54
2018-05-12T02:46:50.042Z,956.51
2018-05-12T02:47:50.050Z,956.50
2018-05-12T02:48:50.057Z,956.49
2018-05-12T02:49:50.063Z,956.51
2018-05-12T02:50:50.077Z,956.51
2018-05-12T02:51:50.085Z,956.54
2018-05-12T02:52:50.097Z,956.53
2018-05-12T02:53:50.112Z,956.52
2018-05-12T02:54:50.112Z,956.55
2018-05-12T02:55:50.120Z,956.52
2018-05-12T02:56:50.130Z,956.51
2018-05-12T02:57:50.987Z,956.54
2018-05-12T02:58:50.252Z,956.53
2018-05-12T02:59:50.159Z,956.54
2018-05-12T03:00:50.185Z,956.56
2018-05-12T03:01:50.183Z,956.54
2018-05-12T03:02:50.284Z,956.59
2018-05-12T03:03:50.196Z,956.56
2018-05-12T03:04:50.211Z,956.56
2018-05-12T03:05:50.214Z,956.59
2018-05-12T03:06:50.226Z,956.62
2018-05-12T03:07:50.960Z,956.56
2018-05-12T03:08:50.244Z,956.53
2018-05-12T03:09:50.263Z,956.52
2018-05-12T03:10:50.268Z,956.53
2018-05-12T03:11:50.277Z,956.51
2018-05-12T03:12:50.287Z,956.45
2018-05-12T03:13:50.295Z,956.46
2018-05-12T03:14:50.307Z,956.45
2018-05-12T03:15:50.313Z,956.43
2018-05-12T03:16:50.318Z,956.45
2018-05-12T03:17:50.326Z,956.46
2018-05-12T03:18:50.335Z,956.45
2018-05-12T03:19:50.352Z,956.43
2018-05-12T03:20:50.355Z,956.42
2018-05-12T03:21:50.368Z,956.40
2018-05-12T03:22:50.373Z,956.41
2018-05-12T03:23:50.393Z,956.43
2018-05-12T03:24:50.393Z,956.42
2018-05-12T03:25:50.401Z,956.39
2018-05-12T03:26:50.414Z,956.37
2018-05-12T03:27:50.421Z,956.37
2018-05-12T03:28:50.433Z,956.40
2018-05-12T03:29:50.445Z,956.40
2018-05-12T03:30:50.448Z,956.36
2018-05-12T03:31:50.457Z,956.34
2018-05-12T03:32:50.468Z,956.42
2018-05-12T03:33:50.483Z,956.40
2018-05-12T03:34:50.489Z,956.38
2018-05-12T03:35:50.505Z,956.42
2018-05-12T03:36:50.510Z,956.44
2018-05-12T03:37:50.514Z,956.44
2018-05-12T03:38:50.528Z,956.50
2018-05-12T03:39:50.544Z,956.48
2018-05-12T03:40:50.548Z,956.51
2018-05-12T03:41:50.558Z,956.53
2018-05-12T03:42:50.559Z,956.58
2018-05-12T03:43:50.570Z,956.57
2018-05-12T03:44:50.588Z,956.59
2018-05-12T03:45:50.590Z,956.59
2018-05-12T03:46:50.595Z,956.57
2018-05-12T03:47:50.610Z,956.58
2018-05-12T03:48:50.615Z,956.62
2018-05-12T03:49:50.628Z,956.63
2018-05-12T03:50:50.633Z,956.61
2018-05-12T03:51:50.643Z,956.64
2018-05-12T03:52:50.653Z,956.62
2018-05-12T03:53:50.674Z,956.59
2018-05-12T03:54:50.674Z,956.61
2018-05-12T03:55:50.682Z,956.60
2018-05-12T03:56:50.691Z,956.58
2018-05-12T03:57:50.700Z,956.62
2018-05-12T03:58:50.709Z,956.62
2018-05-12T03:59:50.816Z,956.65
2018-05-12T04:00:50.728Z,956.65
2018-05-12T04:01:50.740Z,956.67
2018-05-12T04:02:50.745Z,956.69
2018-05-12T04:03:50.756Z,956.71
2018-05-12T04:04:50.774Z,956.66
2018-05-12T04:05:50.781Z,956.67
2018-05-12T04:06:50.780Z,956.68
2018-05-12T04:07:50.789Z,956.66
2018-05-12T04:08:50.800Z,956.71
2018-05-12T04:09:50.814Z,956.69
2018-05-12T04:10:50.818Z,956.69
2018-05-12T04:11:50.827Z,956.70
2018-05-12T04:12:50.846Z,956.74
2018-05-12T04:13:50.851Z,956.73
2018-05-12T04:14:50.858Z,956.74
2018-05-12T04:15:50.901Z,956.71
2018-05-12T04:16:50.875Z,956.73
2018-05-12T04:17:50.888Z,956.73
2018-05-12T04:18:50.903Z,956.77
2018-05-12T04:19:50.909Z,956.77
2018-05-12T04:20:50.912Z,956.76
2018-05-12T04:21:50.923Z,956.74
2018-05-12T04:22:50.931Z,956.72
2018-05-12T04:23:50.937Z,956.71
2018-05-12T04:24:50.954Z,956.73
2018-05-12T04:25:50.962Z,956.70
2018-05-12T04:26:50.967Z,956.72
2018-05-12T04:27:50.977Z,956.73
2018-05-12T04:28:50.985Z,956.73
2018-05-12T04:29:50.996Z,956.79
2018-05-12T04:30:51.004Z,956.76
2018-05-12T04:31:51.019Z,956.79
2018-05-12T04:32:51.025Z,956.79
2018-05-12T04:33:51.030Z,956.80
2018-05-12T04:34:51.039Z,956.78
2018-05-12T04:35:51.053Z,956.82
2018-05-12T04:36:51.058Z,956.79
2018-05-12T04:37:51.081Z,956.78
2018-05-12T04:38:51.080Z,956.79
2018-05-12T04:39:51.093Z,956.79
2018-05-12T04:40:51.097Z,956.80
2018-05-12T04:41:51.105Z,956.80
2018-05-12T04:42:51.124Z,956.84
2018-05-12T04:43:51.123Z,956.81
2018-05-12T04:44:51.132Z,956.82
2018-05-12T04:45:51.145Z,956.83
2018-05-12T04:46:51.152Z,956.82
2018-05-12T04:47:51.162Z,956.86
2018-05-12T04:48:51.170Z,956.79
2018-05-12T04:49:51.188Z,956.81
2018-05-12T04:50:51.189Z,956.78
2018-05-12T04:51:51.197Z,956.82
2018-05-12T04:52:51.208Z,956.80
2018-05-12T04:53:51.226Z,956.83
2018-05-12T04:54:51.228Z,956.82
2018-05-12T04:55:51.239Z,956.84
2018-05-12T04:56:51.246Z,956.86
2018-05-12T04:57:51.253Z,956.83
2018-05-12T04:58:51.349Z,956.83
2018-05-12T04:59:51.277Z,956.85
2018-05-12T05:00:51.280Z,956.81
2018-05-12T05:01:51.297Z,956.83
2018-05-12T05:02:51.306Z,956.81
2018-05-12T05:03:51.310Z,956.83
2018-05-12T05:04:51.320Z,956.85
2018-05-12T05:05:51.326Z,956.84
2018-05-12T05:06:51.343Z,956.85
2018-05-12T05:07:51.366Z,956.87
2018-05-12T05:08:51.359Z,956.89
2018-05-12T05:09:51.368Z,956.89
2018-05-12T05:10:51.378Z,956.89
2018-05-12T05:11:51.387Z,956.93
2018-05-12T05:12:51.399Z,956.91
2018-05-12T05:13:51.400Z,956.89
2018-05-12T05:14:51.423Z,956.91
2018-05-12T05:15:51.426Z,956.92
2018-05-12T05:16:51.431Z,956.92
2018-05-12T05:17:51.444Z,956.89
2018-05-12T05:18:51.446Z,956.92
2018-05-12T05:19:51.460Z,956.91
2018-05-12T05:20:51.486Z,956.96
2018-05-12T05:21:51.479Z,956.92
2018-05-12T05:22:51.489Z,956.94
2018-05-12T05:23:51.496Z,956.94
2018-05-12T05:24:51.509Z,956.93
2018-05-12T05:25:51.517Z,956.93
2018-05-12T05:26:51.544Z,956.92
2018-05-12T05:27:51.537Z,956.93
2018-05-12T05:28:51.545Z,956.89
2018-05-12T05:29:51.555Z,956.91
2018-05-12T05:30:51.566Z,956.93
2018-05-12T05:31:51.573Z,956.91
2018-05-12T05:32:51.601Z,956.92
2018-05-12T05:33:51.593Z,956.92
2018-05-12T05:34:51.612Z,956.93
2018-05-12T05:35:51.612Z,956.93
2018-05-12T05:36:51.620Z,956.92
2018-05-12T05:37:51.630Z,956.95
2018-05-12T05:38:51.652Z,956.94
2018-05-12T05:39:51.652Z,956.95
2018-05-12T05:40:51.661Z,956.94
2018-05-12T05:41:51.669Z,956.93
2018-05-12T05:42:51.680Z,956.95
2018-05-12T05:43:51.697Z,956.98
2018-05-12T05:44:51.706Z,956.94
2018-05-12T05:45:51.708Z,956.98
2018-05-12T05:46:51.715Z,956.96
2018-05-12T05:47:51.724Z,956.97
2018-05-12T05:48:51.740Z,956.97
2018-05-12T05:49:51.747Z,956.98
2018-05-12T05:50:51.762Z,956.93
2018-05-12T05:51:51.767Z,956.95
2018-05-12T05:52:51.774Z,956.95
2018-05-12T05:53:51.798Z,956.91
2018-05-12T05:54:51.794Z,956.92
2018-05-12T05:55:51.806Z,956.92
2018-05-12T05:56:51.821Z,956.94
2018-05-12T05:57:51.824Z,956.93
2018-05-12T05:58:52.565Z,956.89
2018-05-12T05:59:51.847Z,956.94
2018-05-12T06:00:51.856Z,956.94
2018-05-12T06:01:51.869Z,956.92
2018-05-12T06:02:51.873Z,956.92
2018-05-12T06:03:51.881Z,956.96
2018-05-12T06:04:51.902Z,956.98
2018-05-12T06:05:51.906Z,956.96
2018-05-12T06:06:51.992Z,956.97
2018-05-12T06:07:51.923Z,956.98
2018-05-12T06:08:51.931Z,956.96
2018-05-12T06:09:51.941Z,956.96
2018-05-12T06:10:51.958Z,956.98
2018-05-12T06:11:51.961Z,956.97
2018-05-12T06:12:51.973Z,957.00
2018-05-12T06:13:51.979Z,956.95
2018-05-12T06:14:51.989Z,956.95
2018-05-12T06:15:52.002Z,956.93
2018-05-12T06:16:52.020Z,956.96
2018-05-12T06:17:52.020Z,956.97
2018-05-12T06:18:52.036Z,956.96
2018-05-12T06:19:52.050Z,956.98
2018-05-12T06:20:52.052Z,956.98
2018-05-12T06:21:52.060Z,956.95
2018-05-12T06:22:52.074Z,957.01
2018-05-12T06:23:52.098Z,956.99
2018-05-12T06:24:52.089Z,957.00
2018-05-12T06:25:52.098Z,957.03
2018-05-12T06:26:52.112Z,956.99
2018-05-12T06:27:52.193Z,957.01
2018-05-12T06:28:52.136Z,957.05
2018-05-12T06:29:52.138Z,957.05
2018-05-12T06:30:52.163Z,957.06
2018-05-12T06:31:52.167Z,957.05
2018-05-12T06:32:52.172Z,957.00
2018-05-12T06:33:52.180Z,957.02
2018-05-12T06:34:52.195Z,957.00
2018-05-12T06:35:52.204Z,957.03
2018-05-12T06:36:52.223Z,956.97
2018-05-12T06:37:52.223Z,956.99
2018-05-12T06:38:52.232Z,957.00
2018-05-12T06:39:52.244Z,957.02
2018-05-12T06:40:52.260Z,956.98
2018-05-12T06:41:52.259Z,957.01
2018-05-12T06:42:52.278Z,957.00
2018-05-12T06:43:52.283Z,956.96
2018-05-12T06:44:52.298Z,956.97
2018-05-12T06:45:52.306Z,956.99
2018-05-12T06:46:52.322Z,956.99
2018-05-12T06:47:52.324Z,956.96
2018-05-12T06:48:52.344Z,956.97
2018-05-12T06:49:52.351Z,956.95
2018-05-12T06:50:52.353Z,956.97
2018-05-12T06:51:52.371Z,956.93
2018-05-12T06:52:52.388Z,956.95
2018-05-12T06:53:52.386Z,956.92
2018-05-12T06:54:52.436Z,956.91
2018-05-12T06:55:52.407Z,956.87
2018-05-12T06:56:52.419Z,956.90
2018-05-12T06:57:52.431Z,956.88
2018-05-12T06:58:52.449Z,956.88
2018-05-12T06:59:52.455Z,956.90
2018-05-12T07:00:52.461Z,956.88
2018-05-12T07:01:52.473Z,956.89
2018-05-12T07:02:52.481Z,956.85
2018-05-12T07:03:52.485Z,956.86
2018-05-12T07:04:52.505Z,956.87
2018-05-12T07:05:52.512Z,956.89
2018-05-12T07:06:52.522Z,956.86
2018-05-12T07:07:52.534Z,956.84
2018-05-12T07:08:52.550Z,956.85
2018-05-12T07:09:52.555Z,956.84
2018-05-12T07:10:52.565Z,956.83
2018-05-12T07:11:52.573Z,956.79
2018-05-12T07:12:52.591Z,956.81
2018-05-12T07:13:52.597Z,956.76
2018-05-12T07:14:52.623Z,956.76
2018-05-12T07:15:52.617Z,956.74
2018-05-12T07:16:52.626Z,956.75
2018-05-12T07:17:52.663Z,956.74
2018-05-12T07:18:52.652Z,956.73
2018-05-12T07:19:52.661Z,956.73
2018-05-12T07:20:52.672Z,956.75
2018-05-12T07:21:52.686Z,956.70
2018-05-12T07:22:52.698Z,956.72
2018-05-12T07:23:52.702Z,956.71
2018-05-12T07:24:52.716Z,956.76
2018-05-12T07:25:52.726Z,956.73
2018-05-12T07:26:52.735Z,956.70
2018-05-12T07:27:52.756Z,956.72
2018-05-12T07:28:52.758Z,956.70
2018-05-12T07:29:52.785Z,956.69
2018-05-12T07:30:52.780Z,956.71
2018-05-12T07:31:52.788Z,956.68
2018-05-12T07:32:52.811Z,956.64
2018-05-12T07:33:52.812Z,956.64
2018-05-12T07:34:52.824Z,956.63
2018-05-12T07:35:52.843Z,956.60
2018-05-12T07:36:52.849Z,956.58
2018-05-12T07:37:52.856Z,956.58
2018-05-12T07:38:52.920Z,956.58
2018-05-12T07:39:52.885Z,956.57
2018-05-12T07:40:52.921Z,956.61
2018-05-12T07:41:52.895Z,956.57
2018-05-12T07:42:52.941Z,956.58
2018-05-12T07:43:52.925Z,956.56
2018-05-12T07:44:52.940Z,956.56
2018-05-12T07:45:52.951Z,956.60
2018-05-12T07:46:52.957Z,956.55
2018-05-12T07:47:52.971Z,956.55
2018-05-12T07:48:52.976Z,956.54
2018-05-12T07:49:53.000Z,956.54
2018-05-12T07:50:53.040Z,956.54
2018-05-12T07:51:53.011Z,956.56
2018-05-12T07:52:53.024Z,956.54
2018-05-12T07:53:53.032Z,956.54
2018-05-12T07:54:53.047Z,956.53
2018-05-12T07:55:53.056Z,956.52
2018-05-12T07:56:53.118Z,956.53
2018-05-12T07:57:53.088Z,956.50
2018-05-12T07:58:53.103Z,956.51
2018-05-12T07:59:53.101Z,956.45
2018-05-12T08:00:53.125Z,956.43
2018-05-12T08:01:53.123Z,956.41
2018-05-12T08:02:53.138Z,956.38
2018-05-12T08:03:53.155Z,956.40
2018-05-12T08:04:53.158Z,956.41
2018-05-12T08:05:53.167Z,956.38
2018-05-12T08:06:53.201Z,956.36
2018-05-12T08:07:53.192Z,956.33
2018-05-12T08:08:53.204Z,956.32
2018-05-12T08:09:53.214Z,956.35
2018-05-12T08:10:53.248Z,956.31
2018-05-12T08:11:53.243Z,956.28
2018-05-12T08:12:53.321Z,956.30
2018-05-12T08:13:53.265Z,956.27
2018-05-12T08:14:53.275Z,956.26
2018-05-12T08:15:53.285Z,956.26
2018-05-12T08:16:53.305Z,956.25
2018-05-12T08:17:53.307Z,956.27
2018-05-12T08:18:53.324Z,956.28
2018-05-12T08:19:53.331Z,956.31
2018-05-12T08:20:53.345Z,956.31
2018-05-12T08:21:53.358Z,956.24
2018-05-12T08:22:53.373Z,956.24
2018-05-12T08:23:53.386Z,956.26
2018-05-12T08:24:53.387Z,956.25
2018-05-12T08:25:53.398Z,956.26
2018-05-12T08:26:53.457Z,956.22
2018-05-12T08:27:53.422Z,956.27
2018-05-12T08:28:53.437Z,956.27
2018-05-12T08:29:53.456Z,956.26
2018-05-12T08:30:53.460Z,956.27
2018-05-12T08:31:53.477Z,956.25
2018-05-12T08:32:53.484Z,956.24
2018-05-12T08:33:53.493Z,956.25
2018-05-12T08:34:53.513Z,956.20
2018-05-12T08:35:53.518Z,956.18
2018-05-12T08:36:53.551Z,956.19
2018-05-12T08:37:53.564Z,956.17
2018-05-12T08:38:53.556Z,956.17
2018-05-12T08:39:53.566Z,956.13
2018-05-12T08:40:53.584Z,956.13
2018-05-12T08:41:53.594Z,956.13
2018-05-12T08:42:53.614Z,956.11
2018-05-12T08:43:53.630Z,956.12
2018-05-12T08:44:53.630Z,956.14
2018-05-12T08:45:53.644Z,956.13
2018-05-12T08:46:53.657Z,956.15
2018-05-12T08:47:53.681Z,956.12
2018-05-12T08:48:53.681Z,956.13
2018-05-12T08:49:53.697Z,956.10
2018-05-12T08:50:53.703Z,956.08
2018-05-12T08:51:53.754Z,956.07
2018-05-12T08:52:53.729Z,956.06
2018-05-12T08:53:53.741Z,956.09
2018-05-12T08:54:53.751Z,956.05
2018-05-12T08:55:53.763Z,956.03
2018-05-12T08:56:53.790Z,956.07
2018-05-12T08:57:53.790Z,956.06
2018-05-12T08:58:53.800Z,956.02
2018-05-12T08:59:53.823Z,956.04
2018-05-12T09:00:53.837Z,956.04
2018-05-12T09:01:53.854Z,956.05
2018-05-12T09:02:53.849Z,956.03
2018-05-12T09:03:53.864Z,956.06
2018-05-12T09:04:53.883Z,956.02
2018-05-12T09:05:53.887Z,956.04
2018-05-12T09:06:53.916Z,956.01
2018-05-12T09:07:53.916Z,956.05
2018-05-12T09:08:53.923Z,956.02
2018-05-12T09:09:53.936Z,956.02
2018-05-12T09:10:53.955Z,956.00
2018-05-12T09:11:53.971Z,956.01
2018-05-12T09:12:53.995Z,955.98
2018-05-12T09:13:53.992Z,955.99
2018-05-12T09:14:54.002Z,955.99
2018-05-12T09:15:54.017Z,955.95
2018-05-12T09:16:54.032Z,955.95
2018-05-12T09:17:54.041Z,955.93
2018-05-12T09:18:54.074Z,955.98
2018-05-12T09:19:54.069Z,955.97
2018-05-12T09:20:54.080Z,955.96
2018-05-12T09:21:54.098Z,955.97
2018-05-12T09:22:54.105Z,955.98
2018-05-12T09:23:54.119Z,955.96
2018-05-12T09:24:54.135Z,955.99
2018-05-12T09:25:54.146Z,955.94
2018-05-12T09:26:54.159Z,955.94
2018-05-12T09:27:54.180Z,955.90
2018-05-12T09:28:54.183Z,955.89
2018-05-12T09:29:54.200Z,955.87
2018-05-12T09:30:54.218Z,955.87
2018-05-12T09:31:54.236Z,955.90
2018-05-12T09:32:54.253Z,955.89
2018-05-12T09:33:54.250Z,955.88
2018-05-12T09:34:54.279Z,955.86
2018-05-12T09:35:54.277Z,955.83
2018-05-12T09:36:54.296Z,955.82
2018-05-12T09:37:54.304Z,955.82
2018-05-12T09:38:54.318Z,955.84
2018-05-12T09:39:54.331Z,955.79
2018-05-12T09:40:54.347Z,955.83
2018-05-12T09:41:54.371Z,955.78
2018-05-12T09:42:54.372Z,955.77
2018-05-12T09:43:54.382Z,955.78
2018-05-12T09:44:54.458Z,955.80
2018-05-12T09:45:54.410Z,955.78
2018-05-12T09:46:54.454Z,955.82
2018-05-12T09:47:54.438Z,955.79
2018-05-12T09:48:54.453Z,955.74
2018-05-12T09:49:54.474Z,955.72
2018-05-12T09:50:54.482Z,955.75
2018-05-12T09:51:54.495Z,955.72
2018-05-12T09:52:54.502Z,955.69
2018-05-12T09:53:54.524Z,955.68
2018-05-12T09:54:54.524Z,955.64
2018-05-12T09:55:54.550Z,955.63
2018-05-12T09:56:55.402Z,955.64
2018-05-12T09:57:54.568Z,955.64
2018-05-12T09:58:54.581Z,955.65
2018-05-12T09:59:54.595Z,955.61
2018-05-12T10:00:54.637Z,955.69
2018-05-12T10:01:54.619Z,955.71
2018-05-12T10:02:54.635Z,955.70
2018-05-12T10:03:54.651Z,955.76
2018-05-12T10:04:54.662Z,955.69
2018-05-12T10:05:54.690Z,955.62
2018-05-12T10:06:54.694Z,955.59
2018-05-12T10:07:54.703Z,955.57
2018-05-12T10:08:54.747Z,955.55
2018-05-12T10:09:54.735Z,955.55
2018-05-12T10:10:54.809Z,955.52
2018-05-12T10:11:54.759Z,955.51
2018-05-12T10:12:54.782Z,955.53
2018-05-12T10:13:54.789Z,955.52
2018-05-12T10:14:54.812Z,955.54
2018-05-12T10:15:54.813Z,955.56
2018-05-12T10:16:54.835Z,955.57
2018-05-12T10:17:54.838Z,955.55
2018-05-12T10:18:54.872Z,955.55
2018-05-12T10:19:54.875Z,955.49
2018-05-12T10:20:54.886Z,955.59
2018-05-12T10:21:54.898Z,955.64
2018-05-12T10:22:54.910Z,955.62
2018-05-12T10:23:54.928Z,955.59
2018-05-12T10:24:54.951Z,955.57
2018-05-12T10:25:54.959Z,955.58
2018-05-12T10:26:54.966Z,955.59
2018-05-12T10:27:54.991Z,955.58
2018-05-12T10:28:54.997Z,955.61
2018-05-12T10:29:55.015Z,955.58
2018-05-12T10:30:55.027Z,955.56
2018-05-12T10:31:55.053Z,955.52
2018-05-12T10:32:55.058Z,955.52
2018-05-12T10:33:55.075Z,955.56
2018-05-12T10:34:55.083Z,955.60
2018-05-12T10:35:55.108Z,955.67
2018-05-12T10:36:55.114Z,955.61
2018-05-12T10:37:55.134Z,955.56
2018-05-12T10:38:55.187Z,955.49
2018-05-12T10:39:55.157Z,955.44
2018-05-12T10:40:55.178Z,955.49
2018-05-12T10:41:55.187Z,955.44
2018-05-12T10:42:55.211Z,955.43
2018-05-12T10:43:55.217Z,955.45
2018-05-12T10:44:55.273Z,955.50
2018-05-12T10:45:55.247Z,955.35
2018-05-12T10:46:55.274Z,955.37
2018-05-12T10:47:55.279Z,955.31
2018-05-12T10:48:55.293Z,955.33
2018-05-12T10:49:55.308Z,955.28
2018-05-12T10:50:55.323Z,955.32
2018-05-12T10:51:55.338Z,955.34
2018-05-12T10:52:55.353Z,955.30
2018-05-12T10:53:55.365Z,955.32
2018-05-12T10:54:55.390Z,955.34
2018-05-12T10:55:55.398Z,955.36
2018-05-12T10:56:55.412Z,955.35
2018-05-12T10:57:55.428Z,955.33
2018-05-12T10:58:55.449Z,955.28
2018-05-12T10:59:55.458Z,955.25
2018-05-12T11:00:55.469Z,955.20
2018-05-12T11:01:55.546Z,955.18
2018-05-12T11:02:55.501Z,955.18
2018-05-12T11:03:55.517Z,955.12
2018-05-12T11:04:55.533Z,955.12
2018-05-12T11:05:55.552Z,955.08
2018-05-12T11:06:55.562Z,955.19
2018-05-12T11:07:55.585Z,955.15
2018-05-12T11:08:55.592Z,955.17
2018-05-12T11:09:55.608Z,955.15
2018-05-12T11:10:55.624Z,955.05
2018-05-12T11:11:55.638Z,955.07
2018-05-12T11:12:55.654Z,955.11
2018-05-12T11:13:55.668Z,955.15
2018-05-12T11:14:55.685Z,955.17
2018-05-12T11:15:55.764Z,955.21
2018-05-12T11:16:55.713Z,955.38
2018-05-12T11:17:55.730Z,955.55
2018-05-12T11:18:55.752Z,955.52
2018-05-12T11:19:55.767Z,955.54
2018-05-12T11:20:55.779Z,955.50
2018-05-12T11:21:55.898Z,955.49
2018-05-12T11:22:55.813Z,955.53
2018-05-12T11:23:55.830Z,955.53
2018-05-12T11:24:55.851Z,955.51
2018-05-12T11:25:55.871Z,955.45
2018-05-12T11:26:55.887Z,955.54
2018-05-12T11:27:55.924Z,955.56
2018-05-12T11:28:55.930Z,955.51
2018-05-12T11:29:55.950Z,955.42
2018-05-12T11:30:55.970Z,955.31
2018-05-12T11:31:55.991Z,955.37
2018-05-12T11:32:56.015Z,955.43
2018-05-12T11:33:56.040Z,955.50
2018-05-12T11:34:56.057Z,955.53
2018-05-12T11:35:56.089Z,955.30
2018-05-12T11:36:56.102Z,955.45
2018-05-12T11:37:56.127Z,955.53
2018-05-12T11:38:56.147Z,954.95
2018-05-12T11:39:56.176Z,954.87
2018-05-12T11:40:56.195Z,954.78
2018-05-12T11:41:56.218Z,954.80
2018-05-12T11:42:56.241Z,954.82
2018-05-12T11:43:56.266Z,955.10
2018-05-12T11:44:56.287Z,955.62
2018-05-12T11:45:56.309Z,955.67
2018-05-12T11:46:56.333Z,955.52
2018-05-12T11:47:56.351Z,955.49
2018-05-12T11:48:56.376Z,954.79
2018-05-12T11:49:56.404Z,954.86
2018-05-12T11:50:56.437Z,954.84
2018-05-12T11:51:56.443Z,955.51
2018-05-12T11:52:56.468Z,955.63
2018-05-12T11:53:56.496Z,955.62
2018-05-12T11:54:56.511Z,955.63
2018-05-12T11:55:56.532Z,955.52
2018-05-12T11:56:56.557Z,955.42
2018-05-12T11:57:56.586Z,955.36
2018-05-12T11:58:56.603Z,955.34
2018-05-12T11:59:56.626Z,955.30
2018-05-12T12:00:56.651Z,955.33
2018-05-12T12:01:56.702Z,955.30
2018-05-12T12:02:56.700Z,954.82
2018-05-12T12:03:56.725Z,955.39
2018-05-12T12:04:56.748Z,955.60
2018-05-12T12:05:56.781Z,955.60
2018-05-12T12:06:56.798Z,955.52
2018-05-12T12:07:56.829Z,955.46
2018-05-12T12:08:56.847Z,954.71
2018-05-12T12:09:56.870Z,954.74
2018-05-12T12:10:56.898Z,954.63
2018-05-12T12:11:56.923Z,954.61
2018-05-12T12:12:56.971Z,955.14
2018-05-12T12:13:56.968Z,955.41
2018-05-12T12:14:56.996Z,955.43
2018-05-12T12:15:57.018Z,955.48
2018-05-12T12:16:57.043Z,955.45
2018-05-12T12:17:57.171Z,955.40
2018-05-12T12:18:57.091Z,955.33
2018-05-12T12:19:57.117Z,955.31
2018-05-12T12:20:57.149Z,955.37
2018-05-12T12:21:57.165Z,955.41
2018-05-12T12:22:57.189Z,954.56
2018-05-12T12:23:57.216Z,954.46
2018-05-12T12:24:57.240Z,954.55
2018-05-12T12:25:57.268Z,954.61
2018-05-12T12:26:57.290Z,955.80
2018-05-12T12:27:57.326Z,955.90
2018-05-12T12:28:57.347Z,955.86